createdAt,value
2023-01-15T00:13:46.504Z,950.24
2023-01-15T00:28:48.729Z,950.19
2023-01-15T00:43:50.979Z,950.08
2023-01-15T00:58:53.267Z,950.01
2023-01-15T01:13:55.532Z,949.93
2023-01-15T01:28:57.947Z,949.77
2023-01-15T01:44:00.168Z,949.66
2023-01-15T01:59:02.445Z,949.59
2023-01-15T02:14:04.688Z,949.54
2023-01-15T02:29:06.962Z,949.53
2023-01-15T02:44:09.218Z,949.47
2023-01-15T02:59:11.611Z,949.35
2023-01-15T03:14:14.163Z,949.26
2023-01-15T03:29:16.540Z,949.22
2023-01-15T03:44:18.821Z,949.23
2023-01-15T03:59:21.253Z,949.05
2023-01-15T04:14:23.593Z,949.1
2023-01-15T04:29:25.833Z,948.92
2023-01-15T04:44:28.089Z,948.85
2023-01-15T04:59:30.412Z,948.64
2023-01-15T05:14:32.702Z,948.56
2023-01-15T05:29:35.523Z,948.51
2023-01-15T05:44:37.806Z,948.53
2023-01-15T05:59:40.009Z,948.42
2023-01-15T06:14:42.264Z,948.48
2023-01-15T06:29:44.500Z,948.35
2023-01-15T06:44:46.820Z,948.37
2023-01-15T06:59:49.199Z,948.31
2023-01-15T07:14:51.550Z,948.24
2023-01-15T07:29:53.772Z,948.16
2023-01-15T07:44:55.963Z,947.97
2023-01-15T07:59:58.204Z,947.82
2023-01-15T08:15:00.714Z,947.58
2023-01-15T08:30:02.900Z,947.52
2023-01-15T08:45:05.207Z,947.52
2023-01-15T09:00:07.484Z,947.4
2023-01-15T09:15:09.699Z,947.3
2023-01-15T09:30:11.979Z,947.21
2023-01-15T09:45:14.212Z,947.14
2023-01-15T10:00:16.505Z,947.24
2023-01-15T10:15:18.680Z,947.21
2023-01-15T10:30:20.983Z,947.21
2023-01-15T10:45:23.209Z,947.26
2023-01-15T11:00:25.555Z,947.23
2023-01-15T11:15:27.909Z,947.25
2023-01-15T11:30:30.191Z,947.06
2023-01-15T11:45:32.536Z,947.01
2023-01-15T12:00:34.796Z,946.99
2023-01-15T12:15:37.392Z,946.94
2023-01-15T12:30:39.624Z,946.88
2023-01-15T12:45:41.877Z,946.84
2023-01-15T13:00:44.204Z,946.88
2023-01-15T13:15:46.550Z,946.91
2023-01-15T13:30:48.925Z,946.95
2023-01-15T13:45:51.382Z,947.03
2023-01-15T14:00:53.797Z,947.07
2023-01-15T14:15:56.103Z,947.01
2023-01-15T14:30:58.359Z,946.94
2023-01-15T14:46:00.734Z,946.92
2023-01-15T15:01:03.175Z,946.91
2023-01-15T15:16:05.554Z,946.88
2023-01-15T15:31:07.988Z,946.92
2023-01-15T15:46:10.505Z,946.96
2023-01-15T16:01:12.957Z,947.05
2023-01-15T16:16:15.453Z,947.15
2023-01-15T16:31:17.991Z,947.29
2023-01-15T16:46:20.806Z,947.39
2023-01-15T17:01:23.261Z,947.44
2023-01-15T17:16:25.651Z,947.48
2023-01-15T17:31:27.959Z,947.42
2023-01-15T17:46:30.304Z,947.5
2023-01-15T18:01:32.789Z,947.57
2023-01-15T18:16:35.174Z,947.62
2023-01-15T18:31:37.652Z,947.65
2023-01-15T18:46:40.189Z,947.61
2023-01-15T19:01:42.644Z,947.54
2023-01-15T19:16:45.117Z,947.34
2023-01-15T19:31:47.548Z,947.28
2023-01-15T19:46:50.139Z,947.2
2023-01-15T20:01:52.625Z,947.12
2023-01-15T20:16:55.035Z,947.09
2023-01-15T20:31:57.551Z,946.99
2023-01-15T20:47:00.167Z,947.06
2023-01-15T21:02:02.548Z,947.11
2023-01-15T21:17:04.919Z,947.14
2023-01-15T21:32:07.249Z,947.11
2023-01-15T21:47:09.581Z,947
2023-01-15T22:02:12.073Z,947.11
2023-01-15T22:17:14.625Z,947.21
2023-01-15T22:32:17.079Z,947.27
2023-01-15T22:47:19.506Z,947.34
2023-01-15T23:02:21.896Z,947.57
2023-01-15T23:17:24.291Z,947.66
2023-01-15T23:32:26.602Z,947.74
2023-01-15T23:47:28.900Z,947.97
